La Palma, CA (90623)

5:45 PM PDT on September 01, 2015 (GMT -0700)
Valley View / Cerritos | | Change Station
CLOSE
Current Station
Personal Weather Station
Location: Buena Park, CA
Elevation: 55 ft
Nearby Weather Stations

Elev 55 ft 33.81 °N, 118.03 °W | Updated 2 seconds ago

Partly Cloudy
Partly Cloudy
75.8 °F
Feels Like 77 °F
N
6.0
Wind Variable Wind from SSE
Gusts 10.0 mph

Today
High -- | Low -- °F
--% Chance of Precip.
Yesterday
High -- | Low -- °F
Precip. -- in
6:25 AM 7:17 PM
Waning Gibbous, 85% visible
Pressure 29.87 in
Visibility 10.0 miles
Clouds Clear
Heat Index 77 °F
Dew Point 66 °F
Humidity 72%
Rainfall 0.00 in
Snow Depth Not available.
UV 0.0 out of 12
Pollen 7.20 out of 12
Air Quality Not available.
Flu Activity Not available.
METAR KFUL 012353Z 17007KT 10SM CLR 26/17 A2987 RMK AO2 SLP113 T02560167 10278 20250 56006
Pressure 29.87 in
Visibility 10.0 miles
Clouds Clear
Heat Index 77 °F
Dew Point 66 °F
Humidity 72%
Rainfall 0.00 in
Snow Depth Not available.
UV 0.0 out of 12
Pollen 7.20 out of 12
Air Quality Not available.
Flu Activity Not available.
METAR KFUL 012353Z 17007KT 10SM CLR 26/17 A2987 RMK AO2 SLP113 T02560167 10278 20250 56006

10-Day Weather Forecast

×

Almanac

Astronomy

Sep. 01, 2015 Rise Set
Actual Time
Civil Twilight
Nautical Twilight
Astronomical Twilight
Moon
Length of Visible Light
Length of Day
Tomorrow will be .
, % of the Moon is Illuminated

Today's Extremes

State Highs State Lows

Community

WunderPhotos

Upload Photos

1,851,658 photos uploaded!

WunderBlogs® & News

Nearby

Air Quality

  Air Quality AQ Index Pollutant
Not available.

Snow Depth

Station Depth Elevation

Earthquake Activity

City Distance Mag. Time & Date
Minimum magnitude displayed is 2.5.

Coastal Water Temperatures

Place Temperature

Stations

Nearby Weather Stations

Station Location Temp. Windchill Dew Point Humidity Wind Precip. Elev Updated Type